createdAt,value
2022-08-25T07:55:17.845Z,24.20
2022-08-25T07:57:44.696Z,24.30
2022-08-25T08:00:14.897Z,24.40
2022-08-25T08:02:42.954Z,24.40
2022-08-25T08:05:11.068Z,24.60
2022-08-25T08:07:41.943Z,24.60
2022-08-25T08:10:41.975Z,24.70
2022-08-25T08:12:57.962Z,24.80
2022-08-25T08:15:24.910Z,24.90
2022-08-25T08:17:55.018Z,24.90
2022-08-25T08:20:23.578Z,25.00
2022-08-25T08:22:53.346Z,25.10
2022-08-25T08:25:21.410Z,25.10
2022-08-25T08:27:59.367Z,25.30
2022-08-25T08:30:26.654Z,25.30
2022-08-25T08:33:11.692Z,25.40
2022-08-25T08:35:39.258Z,25.40
2022-08-25T08:38:13.180Z,25.50
2022-08-25T08:41:13.539Z,25.60
2022-08-25T08:43:42.395Z,25.80
2022-08-25T08:46:09.235Z,25.80
2022-08-25T08:48:51.377Z,25.90
2022-08-25T08:51:24.626Z,26.00
2022-08-25T08:54:06.555Z,26.00
2022-08-25T08:56:48.419Z,26.10
2022-08-25T08:59:21.826Z,26.20
2022-08-25T09:02:01.242Z,26.30
2022-08-25T09:04:37.638Z,26.40
2022-08-25T09:07:10.984Z,26.60
2022-08-25T09:09:42.680Z,26.70
2022-08-25T09:12:29.551Z,26.70
2022-08-25T09:15:22.931Z,26.90
2022-08-25T09:18:08.605Z,27.00
2022-08-25T09:20:45.271Z,27.10
2022-08-25T09:23:45.680Z,27.20
2022-08-25T09:26:51.120Z,27.30
2022-08-25T09:29:25.397Z,27.40
2022-08-25T09:31:58.656Z,27.40
2022-08-25T09:34:32.445Z,27.60
2022-08-25T09:37:00.467Z,27.70
2022-08-25T09:39:27.768Z,27.90
2022-08-25T09:42:00.205Z,27.90
2022-08-25T09:44:44.368Z,28.00
2022-08-25T09:47:20.496Z,28.00
2022-08-25T09:49:51.240Z,28.10
2022-08-25T09:52:31.952Z,28.20
2022-08-25T09:55:30.662Z,28.30
2022-08-25T09:58:00.119Z,28.40
2022-08-25T10:00:34.574Z,28.60
2022-08-25T10:03:12.837Z,28.70
2022-08-25T10:06:00.128Z,28.90
2022-08-25T10:08:32.846Z,29.00
2022-08-25T10:11:03.053Z,29.10
2022-08-25T10:13:41.557Z,29.20
2022-08-25T10:16:24.789Z,29.30
2022-08-25T10:19:28.518Z,29.50
2022-08-25T10:22:32.437Z,29.50
2022-08-25T10:25:00.688Z,29.70
2022-08-25T10:27:45.581Z,29.80
2022-08-25T10:30:27.403Z,29.90
2022-08-25T10:33:07.190Z,30.00
2022-08-25T10:35:45.603Z,30.00
2022-08-25T10:38:36.206Z,30.00
2022-08-25T10:41:40.507Z,30.10
2022-08-25T10:44:53.163Z,30.00
2022-08-25T10:47:35.824Z,30.10
2022-08-25T10:50:27.311Z,30.30
2022-08-25T10:53:11.049Z,30.50
2022-08-25T10:55:50.342Z,30.80
2022-08-25T10:58:41.322Z,30.90
2022-08-25T11:01:18.536Z,30.90
2022-08-25T11:03:58.622Z,30.90
2022-08-25T11:06:52.704Z,30.90
2022-08-25T11:09:25.519Z,30.90
2022-08-25T11:12:00.128Z,31.10
2022-08-25T11:14:40.003Z,31.30
2022-08-25T11:17:29.255Z,31.50
2022-08-25T11:20:03.938Z,31.60
2022-08-25T11:22:38.285Z,31.60
2022-08-25T11:25:18.351Z,31.60
2022-08-25T11:28:10.298Z,31.60
2022-08-25T11:30:38.771Z,31.60
2022-08-25T11:33:07.679Z,31.70
2022-08-25T11:35:45.452Z,32.00
2022-08-25T11:38:40.295Z,32.10
2022-08-25T11:41:38.822Z,32.10
2022-08-25T11:44:27.220Z,32.20
2022-08-25T11:47:00.019Z,32.30
2022-08-25T11:49:44.946Z,32.30
2022-08-25T11:52:34.965Z,32.10
2022-08-25T11:55:23.163Z,31.90
2022-08-25T11:57:53.619Z,31.80
2022-08-25T12:00:43.179Z,31.70
2022-08-25T12:03:51.044Z,31.70
2022-08-25T12:06:33.997Z,31.70
2022-08-25T12:09:00.755Z,31.70
2022-08-25T12:11:39.799Z,31.90
2022-08-25T12:14:42.255Z,32.30
2022-08-25T12:17:24.315Z,32.50
2022-08-25T12:19:54.581Z,32.70
2022-08-25T12:22:22.133Z,32.90
2022-08-25T12:24:57.460Z,33.30
2022-08-25T12:27:42.254Z,33.00
2022-08-25T12:30:45.618Z,33.30
2022-08-25T12:33:39.658Z,33.50
2022-08-25T12:36:11.109Z,33.50
2022-08-25T12:38:51.876Z,33.50
2022-08-25T12:41:31.023Z,33.70
2022-08-25T12:44:32.759Z,33.80
2022-08-25T12:47:24.887Z,33.80
2022-08-25T12:49:51.756Z,33.90
2022-08-25T12:52:27.977Z,34.00
2022-08-25T12:54:59.424Z,34.20
2022-08-25T12:57:32.099Z,34.50
2022-08-25T13:00:05.735Z,34.80
2022-08-25T13:03:14.166Z,34.70
2022-08-25T13:05:48.320Z,34.80
2022-08-25T13:08:33.728Z,34.90
2022-08-25T13:11:14.236Z,35.20
2022-08-25T13:13:49.513Z,35.60
2022-08-25T13:16:30.197Z,35.70
2022-08-25T13:18:59.525Z,35.60
2022-08-25T13:21:43.304Z,35.90
2022-08-25T13:24:14.612Z,36.30
2022-08-25T13:26:48.278Z,36.10
2022-08-25T13:29:37.682Z,36.10
2022-08-25T13:32:12.738Z,36.20
2022-08-25T13:34:42.544Z,36.10
2022-08-25T13:37:32.343Z,36.30
2022-08-25T13:40:12.765Z,36.10
2022-08-25T13:42:43.769Z,36.10
2022-08-25T13:45:15.117Z,35.80
2022-08-25T13:47:43.804Z,36.10
2022-08-25T13:50:43.220Z,36.40
2022-08-25T13:53:24.254Z,36.80
2022-08-25T13:55:53.189Z,36.90
2022-08-25T13:58:38.970Z,36.90
2022-08-25T14:01:48.841Z,37.20
2022-08-25T14:04:20.480Z,37.60
2022-08-25T14:06:48.529Z,37.40
2022-08-25T14:09:18.221Z,37.50
2022-08-25T14:11:58.523Z,37.30
2022-08-25T14:14:25.101Z,37.50
2022-08-25T14:16:58.822Z,37.70
2022-08-25T14:19:26.189Z,37.90
2022-08-25T14:21:56.820Z,37.60
2022-08-25T14:24:24.280Z,37.70
2022-08-25T14:26:54.532Z,37.80
2022-08-25T14:29:22.259Z,37.80
2022-08-25T14:31:49.981Z,37.80
2022-08-25T14:34:23.988Z,37.50
2022-08-25T14:36:51.246Z,37.80
2022-08-25T14:39:18.348Z,37.80
2022-08-25T14:41:53.168Z,37.80
2022-08-25T14:44:21.297Z,38.00
2022-08-25T14:46:54.236Z,37.80
2022-08-25T14:49:29.639Z,38.20
2022-08-25T14:51:59.047Z,38.10
2022-08-25T14:54:27.936Z,38.20
2022-08-25T14:56:57.135Z,38.10
2022-08-25T14:59:23.815Z,38.20
2022-08-25T15:01:50.551Z,38.20
2022-08-25T15:04:22.508Z,38.30
2022-08-25T15:06:54.809Z,38.00
2022-08-25T15:09:21.773Z,37.50
2022-08-25T15:11:51.753Z,37.10
2022-08-25T15:14:29.196Z,36.80
2022-08-25T15:17:01.550Z,36.60
2022-08-25T15:19:29.414Z,36.50
2022-08-25T15:21:57.742Z,36.50
2022-08-25T15:24:26.384Z,36.30
2022-08-25T15:26:59.603Z,36.00
2022-08-25T15:29:29.994Z,36.30
2022-08-25T15:31:58.221Z,36.20
2022-08-25T15:34:25.286Z,36.00
2022-08-25T15:36:52.201Z,36.20
2022-08-25T15:39:19.216Z,35.80
2022-08-25T15:41:49.522Z,35.90
2022-08-25T15:44:16.578Z,36.00
2022-08-25T15:46:47.164Z,36.30
2022-08-25T15:49:20.725Z,36.00
2022-08-25T15:51:54.348Z,35.90
2022-08-25T15:54:22.525Z,35.80
2022-08-25T15:56:49.563Z,35.80
2022-08-25T15:59:16.553Z,35.60
2022-08-25T16:01:44.384Z,35.40
2022-08-25T16:04:14.367Z,35.30
2022-08-25T16:06:41.202Z,35.20
2022-08-25T16:09:08.172Z,35.30
2022-08-25T16:11:35.391Z,35.30
2022-08-25T16:14:05.797Z,35.30
2022-08-25T16:16:33.684Z,35.30
2022-08-25T16:19:01.478Z,34.80
2022-08-25T16:21:31.471Z,34.80
2022-08-25T16:24:05.474Z,34.80
2022-08-25T16:26:36.486Z,34.60
2022-08-25T16:29:06.435Z,34.50
2022-08-25T16:31:33.396Z,34.40
2022-08-25T16:34:01.455Z,34.30
2022-08-25T16:36:28.870Z,34.40
2022-08-25T16:38:57.557Z,34.30
2022-08-25T16:41:33.868Z,34.20
2022-08-25T16:44:02.412Z,34.10
2022-08-25T16:46:30.551Z,34.10
2022-08-25T16:49:01.921Z,34.00
2022-08-25T16:51:29.804Z,33.90
2022-08-25T16:54:22.212Z,33.90
2022-08-25T16:56:50.764Z,33.90
2022-08-25T16:59:22.214Z,33.90
2022-08-25T17:01:51.042Z,33.90
2022-08-25T17:04:17.971Z,33.70
2022-08-25T17:06:49.556Z,33.60
2022-08-25T17:09:23.073Z,33.60
2022-08-25T17:11:54.398Z,33.40
2022-08-25T17:14:21.814Z,33.30
2022-08-25T17:16:50.592Z,33.00
2022-08-25T17:19:19.124Z,32.40
2022-08-25T17:21:46.887Z,32.10
2022-08-25T17:24:17.253Z,32.10
2022-08-25T17:26:47.338Z,31.90
2022-08-25T17:29:18.101Z,31.70
2022-08-25T17:31:46.153Z,31.30
2022-08-25T17:34:16.378Z,30.80
2022-08-25T17:36:43.911Z,30.90
2022-08-25T17:39:13.317Z,30.70
2022-08-25T17:41:43.880Z,30.60
2022-08-25T17:44:13.422Z,30.60
2022-08-25T17:46:47.460Z,30.60
2022-08-25T17:49:16.055Z,30.60
2022-08-25T17:51:42.828Z,30.70
2022-08-25T17:54:09.837Z,30.70
2022-08-25T17:56:37.929Z,30.50
2022-08-25T17:59:04.794Z,30.40
2022-08-25T18:01:34.153Z,30.30
2022-08-25T18:04:01.166Z,30.30
2022-08-25T18:06:30.946Z,30.40
2022-08-25T18:09:00.100Z,30.30
2022-08-25T18:11:28.814Z,30.30
2022-08-25T18:13:56.948Z,30.00
2022-08-25T18:16:25.348Z,30.10
2022-08-25T18:18:55.450Z,30.10
2022-08-25T18:21:25.297Z,30.00
2022-08-25T18:23:57.367Z,29.90
2022-08-25T18:26:25.584Z,29.80
2022-08-25T18:28:52.342Z,29.60
2022-08-25T18:31:19.826Z,29.50
2022-08-25T18:33:50.929Z,29.30
2022-08-25T18:36:18.300Z,29.10
2022-08-25T18:39:04.045Z,29.00
2022-08-25T18:41:38.194Z,28.90
2022-08-25T18:44:04.970Z,28.80
2022-08-25T18:46:31.733Z,28.30
2022-08-25T18:48:59.135Z,28.20
2022-08-25T18:51:25.858Z,28.20
2022-08-25T18:53:54.498Z,28.10
2022-08-25T18:56:25.890Z,28.00
2022-08-25T18:58:52.686Z,27.80
2022-08-25T19:01:21.386Z,27.90
2022-08-25T19:03:48.563Z,27.90
2022-08-25T19:06:16.392Z,27.70
2022-08-25T19:08:43.747Z,27.70
2022-08-25T19:11:11.063Z,27.60
2022-08-25T19:13:38.747Z,27.70
2022-08-25T19:16:20.226Z,27.40
2022-08-25T19:18:48.811Z,27.40
2022-08-25T19:21:15.796Z,27.10
2022-08-25T19:23:42.470Z,27.10
2022-08-25T19:26:16.951Z,27.00
2022-08-25T19:28:45.678Z,26.90
2022-08-25T19:31:15.219Z,26.80
2022-08-25T19:33:45.921Z,26.50
2022-08-25T19:36:12.962Z,26.30
2022-08-25T19:38:40.519Z,26.50
2022-08-25T19:41:10.670Z,26.40
2022-08-25T19:43:55.534Z,26.20
2022-08-25T19:46:32.672Z,26.10
2022-08-25T19:49:09.093Z,26.10
2022-08-25T19:51:44.169Z,25.90
2022-08-25T19:54:12.758Z,25.70
2022-08-25T19:56:53.882Z,25.40
2022-08-25T19:59:22.847Z,25.60
2022-08-25T20:01:49.821Z,25.50
2022-08-25T20:04:16.905Z,25.60
2022-08-25T20:06:43.692Z,25.50
2022-08-25T20:09:35.557Z,25.20
2022-08-25T20:12:03.545Z,25.20
2022-08-25T20:14:33.903Z,25.40
2022-08-25T20:17:01.748Z,25.20
2022-08-25T20:19:31.030Z,25.40
2022-08-25T20:21:58.866Z,25.00
2022-08-25T20:24:44.011Z,25.10
2022-08-25T20:27:11.362Z,25.30
2022-08-25T20:29:38.217Z,25.00
2022-08-25T20:32:05.309Z,25.10
2022-08-25T20:34:32.631Z,25.00
2022-08-25T20:37:00.908Z,24.60
2022-08-25T20:39:27.609Z,24.60
2022-08-25T20:41:54.272Z,24.40
2022-08-25T20:44:23.366Z,24.30
2022-08-25T20:46:50.315Z,24.40
2022-08-25T20:49:20.093Z,24.30
2022-08-25T20:51:46.755Z,24.20
2022-08-25T20:54:17.304Z,24.20
